createdAt,value
2019-03-23T00:02:04.636Z,50.87
2019-03-23T00:04:35.407Z,50.47
2019-03-23T00:07:07.268Z,51.10
2019-03-23T00:09:38.144Z,48.93
2019-03-23T00:12:08.953Z,51.73
2019-03-23T00:14:39.756Z,51.47
2019-03-23T00:17:10.538Z,52.40
2019-03-23T00:19:41.331Z,50.27
2019-03-23T00:22:12.113Z,50.37
2019-03-23T00:24:42.924Z,51.63
2019-03-23T00:27:13.741Z,52.33
2019-03-23T00:29:44.735Z,50.40
2019-03-23T00:32:15.639Z,49.70
2019-03-23T00:34:46.473Z,49.13
2019-03-23T00:37:17.259Z,51.63
2019-03-23T00:39:48.058Z,50.20
2019-03-23T00:42:18.880Z,50.93
2019-03-23T00:44:49.699Z,48.57
2019-03-23T00:47:20.718Z,51.57
2019-03-23T00:49:51.481Z,52.07
2019-03-23T00:52:22.292Z,51.67
2019-03-23T00:54:53.084Z,52.70
2019-03-23T00:57:24.022Z,53.07
2019-03-23T00:59:54.740Z,52.30
2019-03-23T01:02:25.563Z,51.67
2019-03-23T01:04:56.434Z,52.17
2019-03-23T01:07:27.224Z,51.73
2019-03-23T01:09:58.087Z,51.13
2019-03-23T01:12:28.954Z,53.67
2019-03-23T01:14:59.795Z,51.67
2019-03-23T01:17:30.590Z,53.13
2019-03-23T01:20:03.805Z,53.90
2019-03-23T01:22:34.711Z,53.53
2019-03-23T01:25:06.367Z,52.57
2019-03-23T01:27:37.217Z,50.90
2019-03-23T01:30:09.522Z,52.97
2019-03-23T01:32:40.320Z,51.23
2019-03-23T01:35:11.150Z,52.33
2019-03-23T01:37:42.136Z,54.60
2019-03-23T01:40:13.689Z,52.50
2019-03-23T01:42:53.176Z,53.83
2019-03-23T01:45:25.061Z,52.77
2019-03-23T01:47:56.016Z,52.40
2019-03-23T01:50:27.873Z,55.43
2019-03-23T01:52:59.646Z,55.13
2019-03-23T01:55:30.477Z,54.33
2019-03-23T01:58:01.488Z,56.47
2019-03-23T02:00:32.311Z,57.17
2019-03-23T02:03:03.227Z,56.10
2019-03-23T02:05:34.103Z,57.43
2019-03-23T02:08:05.034Z,55.40
2019-03-23T02:10:36.097Z,60.53
2019-03-23T02:13:07.344Z,57.87
2019-03-23T02:15:38.116Z,59.63
2019-03-23T02:18:09.075Z,56.30
2019-03-23T02:20:39.874Z,59.27
2019-03-23T02:23:10.784Z,56.10
2019-03-23T02:25:41.552Z,56.80
2019-03-23T02:28:12.415Z,57.77
2019-03-23T02:30:43.262Z,58.17
2019-03-23T02:33:14.255Z,57.57
2019-03-23T02:35:45.091Z,58.60
2019-03-23T02:38:15.946Z,60.27
2019-03-23T02:40:46.884Z,56.20
2019-03-23T02:43:17.765Z,56.53
2019-03-23T02:45:48.605Z,55.03
2019-03-23T02:48:19.567Z,55.17
2019-03-23T02:50:50.395Z,53.03
2019-03-23T02:53:21.304Z,55.83
2019-03-23T02:55:53.316Z,53.80
2019-03-23T02:58:24.230Z,54.60
2019-03-23T03:00:55.025Z,56.50
2019-03-23T03:03:25.856Z,56.03
2019-03-23T03:05:56.651Z,55.00
2019-03-23T03:08:27.491Z,54.90
2019-03-23T03:10:58.392Z,52.40
2019-03-23T03:13:30.951Z,53.30
2019-03-23T03:16:01.877Z,54.50
2019-03-23T03:18:32.763Z,51.13
2019-03-23T03:21:03.735Z,52.33
2019-03-23T03:23:34.697Z,54.33
2019-03-23T03:26:06.661Z,53.23
2019-03-23T03:28:37.542Z,51.20
2019-03-23T03:31:08.523Z,52.97
2019-03-23T03:33:39.486Z,53.03
2019-03-23T03:36:10.361Z,53.73
2019-03-23T03:38:43.744Z,51.93
2019-03-23T03:41:14.567Z,54.53
2019-03-23T03:43:49.041Z,55.73
2019-03-23T03:46:20.327Z,56.17
2019-03-23T03:48:51.294Z,56.70
2019-03-23T03:51:22.175Z,57.50
2019-03-23T03:53:53.003Z,59.33
2019-03-23T03:56:23.791Z,58.77
2019-03-23T03:58:54.612Z,56.50
2019-03-23T04:01:25.486Z,55.83
2019-03-23T04:03:56.363Z,54.73
2019-03-23T04:06:27.472Z,54.77
2019-03-23T04:08:58.266Z,54.47
2019-03-23T04:11:29.142Z,56.87
2019-03-23T04:13:59.957Z,52.33
2019-03-23T04:16:30.826Z,53.80
2019-03-23T04:19:01.630Z,53.83
2019-03-23T04:21:32.447Z,53.60
2019-03-23T04:24:03.285Z,53.37
2019-03-23T04:26:34.265Z,54.43
2019-03-23T04:29:05.151Z,52.33
2019-03-23T04:31:36.193Z,53.60
2019-03-23T04:34:07.178Z,53.97
2019-03-23T04:36:40.419Z,52.73
2019-03-23T04:39:11.262Z,52.80
2019-03-23T04:41:42.196Z,50.63
2019-03-23T04:44:13.022Z,51.80
2019-03-23T04:46:46.673Z,51.77
2019-03-23T04:49:17.580Z,51.40
2019-03-23T04:51:48.448Z,51.00
2019-03-23T04:54:19.246Z,50.37
2019-03-23T04:56:50.086Z,49.87
2019-03-23T04:59:20.952Z,49.77
2019-03-23T05:01:52.523Z,49.87
2019-03-23T05:04:23.382Z,52.60
2019-03-23T05:06:54.217Z,50.80
2019-03-23T05:09:25.149Z,49.73
2019-03-23T05:11:56.059Z,49.10
2019-03-23T05:14:26.858Z,48.57
2019-03-23T05:16:57.638Z,47.07
2019-03-23T05:19:28.676Z,46.73
2019-03-23T05:21:59.577Z,47.27
2019-03-23T05:24:30.388Z,46.13
2019-03-23T05:27:03.914Z,45.87
2019-03-23T05:29:34.836Z,46.17
2019-03-23T05:32:05.805Z,47.93
2019-03-23T05:34:39.354Z,47.03
2019-03-23T05:37:10.167Z,47.63
2019-03-23T05:39:41.029Z,45.73
2019-03-23T05:42:11.883Z,46.47
2019-03-23T05:44:42.744Z,44.90
2019-03-23T05:47:13.523Z,45.87
2019-03-23T05:49:45.496Z,46.20
2019-03-23T05:52:16.367Z,44.57
2019-03-23T05:54:47.183Z,44.30
2019-03-23T05:57:19.815Z,43.20
2019-03-23T05:59:50.617Z,44.63
2019-03-23T06:02:21.552Z,46.97
2019-03-23T06:04:52.426Z,43.43
2019-03-23T06:07:23.913Z,44.77
2019-03-23T06:09:54.834Z,45.47
2019-03-23T06:12:25.788Z,45.47
2019-03-23T06:14:57.417Z,47.53
2019-03-23T06:17:28.355Z,43.07
2019-03-23T06:19:59.369Z,43.70
2019-03-23T06:22:30.277Z,44.77
2019-03-23T06:25:01.178Z,42.37
2019-03-23T06:27:32.130Z,43.23
2019-03-23T06:30:05.761Z,43.13
2019-03-23T06:32:36.625Z,42.70
2019-03-23T06:35:08.532Z,44.33
2019-03-23T06:37:39.452Z,41.73
2019-03-23T06:40:10.816Z,41.70
2019-03-23T06:42:43.074Z,42.83
2019-03-23T06:45:14.219Z,42.03
2019-03-23T06:47:45.126Z,42.20
2019-03-23T06:50:19.017Z,40.70
2019-03-23T06:52:49.991Z,42.33
2019-03-23T06:55:20.999Z,40.90
2019-03-23T06:57:51.908Z,39.83
2019-03-23T07:00:22.808Z,38.87
2019-03-23T07:02:53.658Z,38.50
2019-03-23T07:05:28.065Z,37.97
2019-03-23T07:07:59.162Z,38.37
2019-03-23T07:10:30.391Z,37.60
2019-03-23T07:13:01.240Z,35.77
2019-03-23T07:15:32.028Z,36.50
2019-03-23T07:18:04.050Z,36.17
2019-03-23T07:20:34.827Z,34.13
2019-03-23T07:23:05.831Z,33.03
2019-03-23T07:25:36.804Z,32.60
2019-03-23T07:28:08.674Z,31.70
2019-03-23T07:30:39.642Z,29.20
2019-03-23T07:33:10.483Z,29.63
2019-03-23T07:35:41.294Z,30.57
2019-03-23T07:38:13.756Z,30.23
2019-03-23T07:40:44.748Z,29.53
2019-03-23T07:43:15.740Z,28.50
2019-03-23T07:45:46.681Z,27.53
2019-03-23T07:48:17.606Z,26.03
2019-03-23T07:50:52.046Z,27.23
2019-03-23T07:53:23.000Z,26.07
2019-03-23T07:55:53.964Z,25.93
2019-03-23T07:58:24.938Z,25.53
2019-03-23T08:00:55.940Z,25.97
2019-03-23T08:03:26.934Z,24.20
2019-03-23T08:05:58.016Z,24.73
2019-03-23T08:08:29.069Z,25.70
2019-03-23T08:10:59.967Z,23.70
2019-03-23T08:13:30.954Z,22.33
2019-03-23T08:16:01.956Z,21.60
2019-03-23T08:18:34.519Z,21.40
2019-03-23T08:21:05.574Z,20.53
2019-03-23T08:23:36.537Z,20.13
2019-03-23T08:26:07.529Z,21.00
2019-03-23T08:28:38.426Z,18.43
2019-03-23T08:31:11.614Z,18.57
2019-03-23T08:33:44.281Z,16.07
2019-03-23T08:36:15.150Z,15.80
2019-03-23T08:38:46.097Z,13.63
2019-03-23T08:41:17.033Z,13.47
2019-03-23T08:43:48.061Z,13.57
2019-03-23T08:46:19.083Z,11.63
2019-03-23T08:48:50.985Z,11.20
2019-03-23T08:51:21.957Z,10.00
2019-03-23T08:53:52.856Z,9.70
2019-03-23T08:56:23.902Z,9.40
2019-03-23T08:58:54.853Z,9.27
2019-03-23T09:01:25.859Z,8.43
2019-03-23T09:03:56.928Z,9.27
2019-03-23T09:06:28.760Z,7.50
2019-03-23T09:08:59.662Z,7.20
2019-03-23T09:11:30.592Z,7.13
2019-03-23T09:14:01.472Z,5.90
2019-03-23T09:16:32.460Z,5.87
2019-03-23T09:19:03.474Z,4.97
2019-03-23T09:21:34.305Z,4.57
2019-03-23T09:24:05.202Z,4.20
2019-03-23T09:26:37.148Z,4.70
2019-03-23T09:29:08.091Z,4.57
2019-03-23T09:31:40.665Z,4.93
2019-03-23T09:34:11.644Z,3.93
2019-03-23T09:36:42.570Z,4.47
2019-03-23T09:39:13.467Z,4.30
2019-03-23T09:41:44.387Z,3.47
2019-03-23T09:44:15.388Z,4.30
2019-03-23T09:46:46.347Z,4.40
2019-03-23T09:49:17.229Z,3.60
2019-03-23T09:51:48.164Z,3.43
2019-03-23T09:54:19.088Z,3.60
2019-03-23T09:56:51.113Z,4.10
2019-03-23T09:59:24.601Z,4.33
2019-03-23T10:01:55.534Z,4.37
2019-03-23T10:04:28.528Z,3.60
2019-03-23T10:06:59.512Z,4.17
2019-03-23T10:09:30.509Z,4.07
2019-03-23T10:12:01.475Z,3.20
2019-03-23T10:14:32.340Z,3.10
2019-03-23T10:17:03.257Z,3.90
2019-03-23T10:19:34.945Z,3.73
2019-03-23T10:22:05.885Z,3.67
2019-03-23T10:24:36.967Z,4.60
2019-03-23T10:27:07.891Z,3.70
2019-03-23T10:29:38.773Z,3.60
2019-03-23T10:32:09.721Z,3.90
2019-03-23T10:34:43.511Z,3.93
2019-03-23T10:37:14.381Z,2.70
2019-03-23T10:39:45.208Z,3.80
2019-03-23T10:42:16.354Z,3.40
2019-03-23T10:44:47.352Z,3.50
2019-03-23T10:47:18.204Z,3.77
2019-03-23T10:49:49.120Z,3.70
2019-03-23T10:52:19.989Z,3.60
2019-03-23T10:54:50.816Z,3.80
2019-03-23T10:57:22.205Z,3.53
2019-03-23T10:59:53.167Z,3.43
2019-03-23T11:02:24.244Z,3.73
2019-03-23T11:04:55.213Z,3.23
2019-03-23T11:07:26.157Z,4.50
2019-03-23T11:09:57.081Z,3.77
2019-03-23T11:12:30.111Z,4.30
2019-03-23T11:15:01.076Z,3.63
2019-03-23T11:17:32.297Z,3.80
2019-03-23T11:20:04.212Z,2.97
2019-03-23T11:22:35.174Z,3.07
2019-03-23T11:25:06.771Z,3.70
2019-03-23T11:27:37.677Z,3.20
2019-03-23T11:30:11.397Z,3.97
2019-03-23T11:32:43.890Z,3.77
2019-03-23T11:35:15.863Z,4.10
2019-03-23T11:37:47.122Z,3.90
2019-03-23T11:40:18.135Z,3.70
2019-03-23T11:42:50.395Z,3.10
2019-03-23T11:45:21.641Z,3.60
2019-03-23T11:47:52.568Z,4.07
2019-03-23T11:50:23.387Z,3.97
2019-03-23T11:52:54.321Z,3.17
2019-03-23T11:55:25.192Z,3.30
2019-03-23T11:57:56.080Z,3.77
2019-03-23T12:00:27.315Z,3.33
2019-03-23T12:02:59.783Z,3.90
2019-03-23T12:05:30.588Z,3.67
2019-03-23T12:08:01.406Z,4.40
2019-03-23T12:10:32.302Z,5.27
2019-03-23T12:13:03.166Z,3.93
2019-03-23T12:15:34.021Z,3.30
2019-03-23T12:18:04.896Z,4.23
2019-03-23T12:20:35.807Z,3.30
2019-03-23T12:23:08.680Z,3.60
2019-03-23T12:25:39.160Z,2.77
2019-03-23T12:28:10.008Z,3.20
2019-03-23T12:30:40.780Z,3.30
2019-03-23T12:33:11.675Z,4.67
2019-03-23T12:35:42.465Z,3.93
2019-03-23T12:38:13.453Z,4.10
2019-03-23T12:40:44.267Z,3.57
2019-03-23T12:43:15.080Z,4.10
2019-03-23T12:45:46.014Z,3.93
2019-03-23T12:48:16.889Z,3.77
2019-03-23T12:50:47.737Z,3.30
2019-03-23T12:53:21.456Z,4.30
2019-03-23T12:55:52.403Z,2.70
2019-03-23T12:58:24.162Z,3.67
2019-03-23T13:00:59.011Z,3.63
2019-03-23T13:03:30.037Z,3.43
2019-03-23T13:06:01.319Z,2.90
2019-03-23T13:08:32.409Z,3.73
2019-03-23T13:11:03.390Z,4.07
2019-03-23T13:13:35.363Z,3.40
2019-03-23T13:16:06.200Z,3.43
2019-03-23T13:18:37.130Z,3.00
2019-03-23T13:21:10.809Z,3.33
2019-03-23T13:23:41.675Z,3.50
2019-03-23T13:26:12.567Z,3.03
2019-03-23T13:28:45.329Z,3.20
2019-03-23T13:31:16.272Z,3.43
2019-03-23T13:33:49.455Z,3.10
2019-03-23T13:36:20.357Z,3.43
2019-03-23T13:38:51.260Z,3.50
2019-03-23T13:41:22.073Z,3.13
2019-03-23T13:43:52.968Z,3.40
2019-03-23T13:46:24.568Z,3.60
2019-03-23T13:48:55.370Z,3.50
2019-03-23T13:51:26.258Z,3.00
2019-03-23T13:53:57.050Z,3.53
2019-03-23T13:56:30.717Z,3.60
2019-03-23T13:59:01.593Z,3.03
2019-03-23T14:01:32.456Z,4.07
2019-03-23T14:04:03.312Z,4.20
2019-03-23T14:06:34.150Z,3.03
2019-03-23T14:09:06.257Z,3.20
2019-03-23T14:11:37.105Z,3.50
2019-03-23T14:14:10.770Z,3.47
2019-03-23T14:16:41.607Z,3.30
2019-03-23T14:19:14.090Z,4.07
2019-03-23T14:21:46.017Z,4.00
2019-03-23T14:24:16.872Z,3.93
2019-03-23T14:26:47.702Z,4.43
2019-03-23T14:29:18.707Z,3.57
2019-03-23T14:31:49.535Z,4.30
2019-03-23T14:34:20.376Z,3.87
2019-03-23T14:36:51.249Z,4.37
2019-03-23T14:39:22.138Z,3.90
2019-03-23T14:41:52.950Z,3.80
2019-03-23T14:44:23.831Z,3.37
2019-03-23T14:46:54.685Z,3.80
2019-03-23T14:49:25.493Z,3.60
2019-03-23T14:51:56.230Z,4.77
2019-03-23T14:54:27.071Z,4.10
2019-03-23T14:56:59.518Z,4.00
2019-03-23T14:59:30.376Z,3.77
2019-03-23T15:02:01.329Z,3.50
2019-03-23T15:04:33.123Z,14.63
2019-03-23T15:07:06.785Z,4.17
2019-03-23T15:09:37.895Z,3.73
2019-03-23T15:12:14.957Z,5.23
2019-03-23T15:14:41.471Z,4.87
2019-03-23T15:17:12.447Z,3.43
2019-03-23T15:19:44.409Z,6.93
2019-03-23T15:22:15.274Z,43.37
2019-03-23T15:24:47.402Z,33.23
2019-03-23T15:27:19.941Z,6.43
2019-03-23T15:29:51.480Z,12.33
2019-03-23T15:32:22.392Z,3.77
2019-03-23T15:34:54.476Z,3.43
2019-03-23T15:37:27.802Z,4.07
2019-03-23T15:39:58.792Z,3.50
2019-03-23T15:42:29.722Z,4.03
2019-03-23T15:45:00.685Z,4.23
2019-03-23T15:47:31.604Z,3.97
2019-03-23T15:50:02.502Z,4.10
2019-03-23T15:52:33.453Z,3.73
2019-03-23T15:55:04.764Z,3.37
2019-03-23T15:57:35.939Z,4.30
2019-03-23T16:00:09.784Z,3.80
2019-03-23T16:02:40.977Z,4.00
2019-03-23T16:05:12.526Z,4.30
2019-03-23T16:07:43.488Z,4.03
2019-03-23T16:10:15.408Z,4.23
2019-03-23T16:12:46.326Z,3.60
2019-03-23T16:15:18.113Z,4.20
2019-03-23T16:17:49.188Z,4.80
2019-03-23T16:20:21.122Z,4.23
2019-03-23T16:22:52.223Z,4.03
2019-03-23T16:25:23.439Z,3.40
2019-03-23T16:27:54.700Z,3.83
2019-03-23T16:30:31.978Z,4.07
2019-03-23T16:33:03.123Z,6.33
2019-03-23T16:35:34.055Z,3.57
2019-03-23T16:38:05.029Z,4.57
2019-03-23T16:40:36.089Z,4.47
2019-03-23T16:43:09.025Z,4.40
2019-03-23T16:45:40.005Z,4.00
2019-03-23T16:48:12.440Z,4.27
2019-03-23T16:50:44.822Z,8.63
2019-03-23T16:53:15.848Z,4.90
2019-03-23T16:55:47.657Z,4.57
2019-03-23T16:58:18.618Z,4.10
2019-03-23T17:00:50.677Z,4.60
2019-03-23T17:03:21.507Z,8.80
2019-03-23T17:05:52.517Z,4.50
2019-03-23T17:08:24.749Z,4.13
2019-03-23T17:10:55.718Z,4.37
2019-03-23T17:13:26.735Z,4.17
2019-03-23T17:15:57.615Z,4.83
2019-03-23T17:18:28.480Z,4.93
2019-03-23T17:20:59.288Z,4.47
2019-03-23T17:23:30.324Z,4.00
2019-03-23T17:26:01.209Z,4.57
2019-03-23T17:28:32.068Z,4.13
2019-03-23T17:31:03.033Z,3.90
2019-03-23T17:33:35.962Z,3.97
2019-03-23T17:36:06.855Z,4.30
2019-03-23T17:38:37.686Z,5.00
2019-03-23T17:41:10.218Z,4.97
2019-03-23T17:43:41.039Z,4.07
2019-03-23T17:46:15.176Z,4.40
2019-03-23T17:48:46.012Z,4.80
2019-03-23T17:51:16.870Z,4.40
2019-03-23T17:53:51.088Z,5.07
2019-03-23T17:56:21.483Z,3.70
2019-03-23T17:58:52.488Z,4.93
2019-03-23T18:01:23.371Z,13.37
2019-03-23T18:03:55.477Z,5.33
2019-03-23T18:06:26.318Z,5.77
2019-03-23T18:08:57.206Z,4.60
2019-03-23T18:11:28.177Z,4.30
2019-03-23T18:13:59.039Z,4.37
2019-03-23T18:16:29.887Z,4.80
2019-03-23T18:19:00.862Z,5.80
2019-03-23T18:21:31.674Z,4.90
2019-03-23T18:24:02.548Z,4.77
2019-03-23T18:26:33.352Z,6.17
2019-03-23T18:29:05.074Z,6.60
2019-03-23T18:31:35.931Z,6.60
2019-03-23T18:34:06.891Z,6.77
2019-03-23T18:36:37.699Z,7.07
2019-03-23T18:39:09.075Z,5.70
2019-03-23T18:41:39.969Z,6.23
2019-03-23T18:44:16.344Z,6.47
2019-03-23T18:46:45.298Z,5.53
2019-03-23T18:49:17.320Z,6.13
2019-03-23T18:51:48.146Z,6.67
2019-03-23T18:54:19.015Z,6.03
2019-03-23T18:56:50.927Z,6.10
2019-03-23T18:59:21.802Z,5.97
2019-03-23T19:01:52.738Z,6.03
2019-03-23T19:04:23.531Z,5.60
2019-03-23T19:06:54.380Z,5.70
2019-03-23T19:09:25.389Z,6.50
2019-03-23T19:11:56.276Z,6.00
2019-03-23T19:14:27.087Z,6.07
2019-03-23T19:16:58.031Z,5.00
2019-03-23T19:19:28.962Z,5.70
2019-03-23T19:21:59.955Z,5.30
2019-03-23T19:24:30.929Z,5.13
2019-03-23T19:27:02.114Z,5.50
2019-03-23T19:29:33.165Z,5.53
2019-03-23T19:32:05.370Z,4.50
2019-03-23T19:34:36.286Z,4.90
2019-03-23T19:37:07.141Z,4.67
2019-03-23T19:39:38.043Z,4.57
2019-03-23T19:42:09.090Z,4.90
2019-03-23T19:44:40.119Z,5.23
2019-03-23T19:47:12.923Z,5.43
2019-03-23T19:49:43.856Z,3.97
2019-03-23T19:52:14.795Z,4.63
2019-03-23T19:54:45.641Z,4.27
2019-03-23T19:57:19.027Z,4.20
2019-03-23T19:59:49.971Z,5.17
2019-03-23T20:02:21.142Z,5.07
2019-03-23T20:04:54.356Z,4.80
2019-03-23T20:07:32.707Z,4.17
2019-03-23T20:09:57.802Z,5.40
2019-03-23T20:12:28.739Z,4.90
2019-03-23T20:14:59.638Z,4.37
2019-03-23T20:17:32.078Z,4.90
2019-03-23T20:20:03.079Z,5.40
2019-03-23T20:22:35.042Z,4.30
2019-03-23T20:25:08.924Z,4.87
2019-03-23T20:27:39.901Z,5.23
2019-03-23T20:30:13.041Z,4.80
2019-03-23T20:32:46.914Z,4.77
2019-03-23T20:35:20.735Z,3.77
2019-03-23T20:37:53.997Z,4.60
2019-03-23T20:40:24.851Z,4.60
2019-03-23T20:42:56.092Z,4.47
2019-03-23T20:45:29.521Z,3.97
2019-03-23T20:48:01.161Z,4.00
2019-03-23T20:50:32.149Z,3.97
2019-03-23T20:53:03.229Z,5.00
2019-03-23T20:55:34.251Z,5.50
2019-03-23T20:58:05.166Z,4.70
2019-03-23T21:00:37.846Z,5.30
2019-03-23T21:03:10.002Z,4.43
2019-03-23T21:05:41.190Z,5.40
2019-03-23T21:08:12.273Z,5.07
2019-03-23T21:10:43.302Z,3.93
2019-03-23T21:13:14.289Z,4.30
2019-03-23T21:15:46.798Z,4.23
2019-03-23T21:18:17.740Z,4.60
2019-03-23T21:20:49.121Z,3.87
2019-03-23T21:23:22.152Z,4.67
2019-03-23T21:25:53.164Z,4.20
2019-03-23T21:28:25.227Z,4.20
2019-03-23T21:30:56.244Z,4.33
2019-03-23T21:33:31.922Z,3.87
2019-03-23T21:36:00.003Z,4.43
2019-03-23T21:38:31.201Z,4.57
2019-03-23T21:41:04.761Z,3.60
2019-03-23T21:43:35.765Z,4.07
2019-03-23T21:46:06.651Z,3.80
2019-03-23T21:48:37.620Z,3.97
2019-03-23T21:51:08.492Z,4.53
2019-03-23T21:53:39.467Z,4.17
2019-03-23T21:56:10.376Z,4.20
2019-03-23T21:58:41.220Z,4.70
2019-03-23T22:01:12.066Z,5.03
2019-03-23T22:03:43.060Z,3.83
2019-03-23T22:06:14.018Z,5.30
2019-03-23T22:08:46.181Z,4.33
2019-03-23T22:11:17.135Z,4.43
2019-03-23T22:13:47.963Z,3.70
2019-03-23T22:16:18.841Z,4.53
2019-03-23T22:18:49.822Z,4.60
2019-03-23T22:21:20.783Z,5.33
2019-03-23T22:23:51.598Z,4.33
2019-03-23T22:26:22.659Z,4.57
2019-03-23T22:28:53.705Z,4.47
2019-03-23T22:31:24.640Z,5.03
2019-03-23T22:33:55.468Z,4.23
2019-03-23T22:36:26.375Z,4.47
2019-03-23T22:38:59.679Z,3.70
2019-03-23T22:41:29.778Z,3.70
2019-03-23T22:44:00.621Z,4.30
2019-03-23T22:46:31.422Z,4.20
2019-03-23T22:49:02.288Z,4.83
2019-03-23T22:51:33.152Z,5.13
2019-03-23T22:54:03.968Z,4.00
2019-03-23T22:56:34.765Z,3.97
2019-03-23T22:59:05.683Z,4.30
2019-03-23T23:01:36.659Z,4.77
2019-03-23T23:04:07.559Z,3.93
2019-03-23T23:06:38.414Z,4.40
2019-03-23T23:09:10.495Z,4.40
2019-03-23T23:11:41.369Z,4.30
2019-03-23T23:14:13.879Z,4.27
2019-03-23T23:16:46.282Z,4.00
2019-03-23T23:19:17.205Z,4.47
2019-03-23T23:21:50.340Z,3.93
2019-03-23T23:24:24.535Z,4.43
2019-03-23T23:26:55.381Z,3.37
2019-03-23T23:29:26.217Z,4.10
2019-03-23T23:31:57.103Z,4.83
2019-03-23T23:34:28.947Z,4.57
2019-03-23T23:36:59.731Z,4.37
2019-03-23T23:39:30.623Z,3.90
2019-03-23T23:42:01.482Z,3.53
2019-03-23T23:44:32.414Z,4.53
2019-03-23T23:47:03.234Z,4.60
2019-03-23T23:49:35.703Z,3.50
2019-03-23T23:52:06.632Z,4.80
2019-03-23T23:54:37.583Z,3.53
2019-03-23T23:57:08.485Z,3.63
2019-03-23T23:59:39.311Z,3.10
